Time;durP1;ratioP1;P1;durP2;ratioP2;P2;SDS_P1;SDS_P2;PMS_P1;PMS_P2;Temp;Humidity;BMP_temperature;BMP_pressure;BME280_temperature;BME280_humidity;BME280_pressure;Samples;Min_cycle;Max_cycle;Signal;HPM_P1;HPM_P2
2021/01/06 00:00:00;;;;;;;7.33;5.83;;;;;;;;;;5035705;28;20470;-59
2021/01/06 00:02:26;;;;;;;7.83;6.70;;;;;;;;;;5065889;28;20228;-60
2021/01/06 00:04:52;;;;;;;6.70;5.90;;;;;;;;;;5040855;28;20268;-60
2021/01/06 00:07:18;;;;;;;6.97;5.43;;;;;;;;;;5061917;28;20212;-59
2021/01/06 00:09:44;;;;;;;7.83;6.40;;;;;;;;;;5071043;28;20450;-59
2021/01/06 00:12:10;;;;;;;10.57;6.87;;;;;;;;;;5069168;28;20315;-59
2021/01/06 00:14:36;;;;;;;7.23;5.73;;;;;;;;;;5052336;28;20526;-61
2021/01/06 00:17:02;;;;;;;8.63;6.13;;;;;;;;;;5062622;28;20173;-60
2021/01/06 00:19:28;;;;;;;7.63;5.73;;;;;;;;;;5042981;28;20183;-59
2021/01/06 00:21:54;;;;;;;7.07;5.77;;;;;;;;;;5069927;28;20430;-60
2021/01/06 00:24:20;;;;;;;8.70;6.43;;;;;;;;;;5062684;28;20189;-62
2021/01/06 00:26:46;;;;;;;7.13;5.73;;;;;;;;;;5057477;28;20180;-61
2021/01/06 00:29:13;;;;;;;6.33;5.03;;;;;;;;;;5065189;28;20199;-60
2021/01/06 00:31:40;;;;;;;6.90;5.77;;;;;;;;;;5070803;28;20466;-59
2021/01/06 00:34:06;;;;;;;7.50;5.77;;;;;;;;;;5043442;28;20443;-62
2021/01/06 00:36:32;;;;;;;6.47;5.20;;;;;;;;;;5036718;28;20430;-60
2021/01/06 00:38:58;;;;;;;6.47;5.30;;;;;;;;;;5070947;28;20177;-61
2021/01/06 00:41:28;;;;;;;6.47;5.63;;;;;;;;;;5062625;28;20432;-60
2021/01/06 00:43:55;;;;;;;7.83;6.17;;;;;;;;;;5045009;28;20423;-60
2021/01/06 00:46:21;;;;;;;7.17;5.60;;;;;;;;;;5055077;28;20917;-61
2021/01/06 00:48:48;;;;;;;6.97;5.77;;;;;;;;;;5052470;28;20180;-59
2021/01/06 00:51:14;;;;;;;7.63;6.20;;;;;;;;;;5038979;28;20204;-60
2021/01/06 00:53:40;;;;;;;7.50;6.13;;;;;;;;;;5064299;28;20427;-59
2021/01/06 00:56:06;;;;;;;6.13;5.17;;;;;;;;;;5037465;28;20488;-59
2021/01/06 00:58:32;;;;;;;5.77;4.97;;;;;;;;;;5058489;28;20423;-59
2021/01/06 01:00:58;;;;;;;7.80;5.47;;;;;;;;;;5055533;28;20434;-59
2021/01/06 01:03:24;;;;;;;6.97;5.57;;;;;;;;;;5064255;28;20221;-59
2021/01/06 01:05:50;;;;;;;5.77;4.83;;;;;;;;;;5036129;28;20432;-59
2021/01/06 01:08:16;;;;;;;6.57;4.90;;;;;;;;;;5055267;28;20624;-62
2021/01/06 01:10:44;;;;;;;6.83;5.43;;;;;;;;;;5056370;28;20185;-60
2021/01/06 01:13:14;;;;;;;7.10;5.30;;;;;;;;;;5069156;28;20508;-59
2021/01/06 01:15:41;;;;;;;5.80;5.07;;;;;;;;;;5057203;28;20431;-59
2021/01/06 01:18:08;;;;;;;6.73;4.93;;;;;;;;;;5071040;28;20419;-60
2021/01/06 01:20:34;;;;;;;6.77;5.10;;;;;;;;;;5053186;28;20420;-59
2021/01/06 01:23:00;;;;;;;6.40;5.60;;;;;;;;;;5070228;28;20419;-61
2021/01/06 01:25:27;;;;;;;8.30;5.50;;;;;;;;;;5052124;28;20185;-59
2021/01/06 01:27:53;;;;;;;6.00;5.40;;;;;;;;;;5052287;28;20234;-59
2021/01/06 01:30:22;;;;;;;5.70;5.00;;;;;;;;;;5062574;28;20801;-59
2021/01/06 01:32:48;;;;;;;5.80;5.17;;;;;;;;;;5069792;28;20263;-59
2021/01/06 01:35:15;;;;;;;6.20;5.60;;;;;;;;;;5053411;28;20440;-59
2021/01/06 01:37:42;;;;;;;7.67;5.60;;;;;;;;;;5058491;28;20432;-59
2021/01/06 01:40:09;;;;;;;5.97;5.23;;;;;;;;;;5053603;28;20454;-59
2021/01/06 01:42:35;;;;;;;7.80;5.70;;;;;;;;;;5062347;28;20887;-59
2021/01/06 01:45:04;;;;;;;5.93;5.33;;;;;;;;;;5038946;28;20559;-60
2021/01/06 01:47:48;;;;;;;8.80;5.13;;;;;;;;;;5051686;28;20181;-59
2021/01/06 01:50:16;;;;;;;7.67;4.67;;;;;;;;;;5052254;28;20443;-60
2021/01/06 01:52:45;;;;;;;5.43;4.87;;;;;;;;;;5068059;28;20923;-62
2021/01/06 01:55:14;;;;;;;5.70;5.07;;;;;;;;;;5036642;28;20441;-60
2021/01/06 01:57:43;;;;;;;5.87;4.70;;;;;;;;;;5067295;28;20952;-59
2021/01/06 02:00:12;;;;;;;5.73;4.83;;;;;;;;;;5062984;28;20446;-60
2021/01/06 02:02:56;;;;;;;5.10;4.60;;;;;;;;;;5054485;28;20472;-59
2021/01/06 02:05:27;;;;;;;4.93;4.43;;;;;;;;;;5056195;28;20526;-59
2021/01/06 02:07:56;;;;;;;5.60;5.00;;;;;;;;;;5064096;28;20419;-59
2021/01/06 02:10:35;;;;;;;5.90;5.23;;;;;;;;;;5061268;28;20444;-60
2021/01/06 02:13:17;;;;;;;5.33;4.03;;;;;;;;;;5031300;28;20299;-60
2021/01/06 02:15:46;;;;;;;5.33;4.67;;;;;;;;;;5035502;28;20921;-59
2021/01/06 02:18:12;;;;;;;5.80;5.20;;;;;;;;;;5050882;28;20426;-62
2021/01/06 02:20:38;;;;;;;5.33;4.47;;;;;;;;;;5052587;28;20429;-59
2021/01/06 02:23:04;;;;;;;4.37;3.97;;;;;;;;;;5040016;28;20420;-59
2021/01/06 02:25:32;;;;;;;5.33;4.80;;;;;;;;;;5060255;28;20254;-59
2021/01/06 02:27:58;;;;;;;5.27;4.77;;;;;;;;;;5051736;28;20523;-59
2021/01/06 02:30:25;;;;;;;7.00;5.10;;;;;;;;;;5050221;28;20233;-59
2021/01/06 02:32:52;;;;;;;4.87;4.37;;;;;;;;;;5066469;28;20454;-59
2021/01/06 02:35:18;;;;;;;5.30;4.50;;;;;;;;;;5032369;28;20786;-59
2021/01/06 02:37:44;;;;;;;5.20;4.67;;;;;;;;;;5060781;28;20476;-59
2021/01/06 02:40:11;;;;;;;5.50;4.63;;;;;;;;;;5049761;28;20427;-59
2021/01/06 02:42:38;;;;;;;5.27;4.13;;;;;;;;;;5050777;28;20436;-61
2021/01/06 02:45:12;;;;;;;5.13;4.53;;;;;;;;;;5054471;28;20513;-59
2021/01/06 02:47:39;;;;;;;5.07;4.13;;;;;;;;;;5063338;28;20441;-60
2021/01/06 02:50:07;;;;;;;5.03;4.33;;;;;;;;;;5050312;28;20442;-61
2021/01/06 02:52:38;;;;;;;5.73;4.23;;;;;;;;;;5061083;28;20524;-60
2021/01/06 02:55:06;;;;;;;5.87;5.03;;;;;;;;;;5062063;28;20477;-59
2021/01/06 02:57:33;;;;;;;5.50;4.60;;;;;;;;;;5062767;28;20420;-60
2021/01/06 02:59:59;;;;;;;5.00;4.50;;;;;;;;;;5050250;28;20419;-59
2021/01/06 03:02:25;;;;;;;5.63;4.80;;;;;;;;;;5059236;28;20470;-59
2021/01/06 03:04:58;;;;;;;5.83;5.20;;;;;;;;;;5060676;28;20193;-59
2021/01/06 03:07:27;;;;;;;4.73;4.23;;;;;;;;;;5050946;28;20204;-59
2021/01/06 03:09:53;;;;;;;6.03;4.37;;;;;;;;;;5049769;28;20436;-61
2021/01/06 03:12:27;;;;;;;4.43;3.97;;;;;;;;;;5053549;28;20470;-59
2021/01/06 03:14:53;;;;;;;5.30;4.80;;;;;;;;;;5069199;28;20173;-62
2021/01/06 03:17:20;;;;;;;4.50;4.10;;;;;;;;;;5065734;28;20511;-60
2021/01/06 03:19:48;;;;;;;4.87;4.30;;;;;;;;;;5032572;28;20428;-59
2021/01/06 03:22:15;;;;;;;5.23;4.67;;;;;;;;;;5065121;28;20419;-59
2021/01/06 03:24:45;;;;;;;5.13;4.63;;;;;;;;;;5067637;28;21278;-59
2021/01/06 03:27:12;;;;;;;6.47;4.27;;;;;;;;;;5067587;28;20797;-59
2021/01/06 03:29:38;;;;;;;5.07;4.30;;;;;;;;;;5053552;28;20432;-60
2021/01/06 03:32:09;;;;;;;5.37;4.33;;;;;;;;;;5054663;28;20466;-60
2021/01/06 03:34:42;;;;;;;4.93;4.40;;;;;;;;;;5053334;28;20837;-59
2021/01/06 03:37:13;;;;;;;6.07;5.03;;;;;;;;;;5066114;28;20473;-59
2021/01/06 03:39:42;;;;;;;4.60;4.20;;;;;;;;;;5056606;28;20173;-60
2021/01/06 03:42:08;;;;;;;7.37;5.17;;;;;;;;;;5048653;28;20422;-60
2021/01/06 03:44:35;;;;;;;6.00;4.73;;;;;;;;;;5057882;28;20431;-59
2021/01/06 03:47:12;;;;;;;5.97;4.57;;;;;;;;;;5063802;28;20181;-61
2021/01/06 03:49:51;;;;;;;4.90;4.40;;;;;;;;;;5035800;28;20445;-62
2021/01/06 03:52:24;;;;;;;5.33;4.60;;;;;;;;;;5054539;28;20447;-59
2021/01/06 03:55:03;;;;;;;6.73;5.60;;;;;;;;;;5067616;28;20184;-60
2021/01/06 03:57:30;;;;;;;5.30;4.40;;;;;;;;;;5070707;28;20415;-60
2021/01/06 03:59:57;;;;;;;6.23;5.50;;;;;;;;;;5055731;28;20469;-59
2021/01/06 04:02:27;;;;;;;5.30;4.80;;;;;;;;;;5067207;28;20833;-59
2021/01/06 04:05:16;;;;;;;6.00;5.37;;;;;;;;;;5062202;28;20436;-60
2021/01/06 04:07:44;;;;;;;6.57;4.80;;;;;;;;;;5044227;28;20469;-60
2021/01/06 04:10:12;;;;;;;5.20;4.70;;;;;;;;;;5056426;28;20461;-60
2021/01/06 04:12:39;;;;;;;6.83;5.77;;;;;;;;;;5071041;28;20501;-62
2021/01/06 04:15:06;;;;;;;6.00;5.10;;;;;;;;;;5061321;28;20458;-60
2021/01/06 04:17:35;;;;;;;5.70;5.13;;;;;;;;;;5068074;28;20425;-61
2021/01/06 04:20:01;;;;;;;6.00;5.17;;;;;;;;;;5070337;28;20462;-59
2021/01/06 04:22:38;;;;;;;6.37;5.37;;;;;;;;;;5068890;28;20927;-59
2021/01/06 04:25:10;;;;;;;6.23;5.00;;;;;;;;;;5037636;28;20631;-59
2021/01/06 04:27:36;;;;;;;6.63;5.73;;;;;;;;;;5057354;28;20185;-59
2021/01/06 04:30:05;;;;;;;6.37;5.03;;;;;;;;;;5051811;28;20454;-60
2021/01/06 04:32:32;;;;;;;6.37;5.43;;;;;;;;;;5069486;28;20506;-60
2021/01/06 04:34:59;;;;;;;5.83;5.23;;;;;;;;;;5066065;28;20752;-62
2021/01/06 04:37:25;;;;;;;6.57;5.40;;;;;;;;;;5048327;28;20685;-60
2021/01/06 04:39:51;;;;;;;8.27;5.63;;;;;;;;;;5071707;28;20917;-59
2021/01/06 04:42:17;;;;;;;6.00;4.87;;;;;;;;;;5070852;28;20456;-62
2021/01/06 04:44:55;;;;;;;7.63;5.80;;;;;;;;;;5060921;28;20248;-59
2021/01/06 04:47:41;;;;;;;5.97;5.07;;;;;;;;;;5056902;28;21070;-61
2021/01/06 04:50:21;;;;;;;6.17;5.27;;;;;;;;;;5054092;28;20178;-60
2021/01/06 04:52:55;;;;;;;7.33;5.73;;;;;;;;;;5064462;28;20497;-60
2021/01/06 04:55:32;;;;;;;6.37;5.73;;;;;;;;;;5059803;28;20435;-60
2021/01/06 04:58:01;;;;;;;7.07;5.53;;;;;;;;;;5059721;28;20169;-59
2021/01/06 05:00:47;;;;;;;6.17;5.07;;;;;;;;;;5057359;28;20427;-60
2021/01/06 05:03:20;;;;;;;6.23;5.53;;;;;;;;;;5050839;28;20811;-60
2021/01/06 05:05:51;;;;;;;7.10;5.90;;;;;;;;;;5059414;28;20491;-59
2021/01/06 05:08:27;;;;;;;6.77;5.20;;;;;;;;;;5061496;28;20414;-59
2021/01/06 05:11:01;;;;;;;5.90;5.30;;;;;;;;;;5066595;28;20222;-59
2021/01/06 05:13:34;;;;;;;7.47;5.93;;;;;;;;;;5041122;28;20796;-59
2021/01/06 05:16:00;;;;;;;7.00;6.20;;;;;;;;;;5053850;28;20429;-59
2021/01/06 05:18:27;;;;;;;7.50;6.30;;;;;;;;;;5063114;28;20887;-59
2021/01/06 05:20:54;;;;;;;6.53;5.93;;;;;;;;;;5063762;28;20174;-60
2021/01/06 05:23:22;;;;;;;7.30;6.13;;;;;;;;;;5059392;28;20177;-59
2021/01/06 05:25:49;;;;;;;7.13;5.73;;;;;;;;;;5051482;28;20609;-59
2021/01/06 05:28:16;;;;;;;8.57;6.37;;;;;;;;;;5051383;28;20425;-59
2021/01/06 05:30:43;;;;;;;7.50;6.37;;;;;;;;;;5059262;28;20962;-59
2021/01/06 05:33:12;;;;;;;5.90;5.30;;;;;;;;;;5069730;28;20461;-60
2021/01/06 05:35:43;;;;;;;7.67;6.87;;;;;;;;;;5035076;28;20174;-59
2021/01/06 05:38:09;;;;;;;7.37;6.07;;;;;;;;;;5050235;28;20657;-59
2021/01/06 05:40:36;;;;;;;9.07;6.73;;;;;;;;;;5054427;28;20788;-59
2021/01/06 05:43:08;;;;;;;7.10;6.27;;;;;;;;;;5040890;28;20407;-60
2021/01/06 05:45:39;;;;;;;7.10;5.97;;;;;;;;;;5032533;28;20197;-60
2021/01/06 05:48:20;;;;;;;7.53;6.27;;;;;;;;;;5049679;28;20817;-59
2021/01/06 05:50:58;;;;;;;6.43;5.77;;;;;;;;;;5051142;28;20430;-60
2021/01/06 05:53:36;;;;;;;7.53;6.40;;;;;;;;;;5054193;28;20192;-60
2021/01/06 05:56:05;;;;;;;8.37;6.57;;;;;;;;;;5048216;28;20443;-59
2021/01/06 05:58:33;;;;;;;6.83;5.73;;;;;;;;;;5049713;28;20184;-60
2021/01/06 06:01:07;;;;;;;7.07;5.97;;;;;;;;;;5048303;28;20188;-60
2021/01/06 06:03:58;;;;;;;7.00;6.00;;;;;;;;;;5068416;28;20450;-59
2021/01/06 06:06:36;;;;;;;7.47;6.07;;;;;;;;;;5053990;28;20422;-60
2021/01/06 06:09:09;;;;;;;6.67;5.93;;;;;;;;;;5061733;28;20909;-59
2021/01/06 06:11:54;;;;;;;6.97;5.73;;;;;;;;;;5060438;28;20462;-60
2021/01/06 06:14:35;;;;;;;6.57;5.97;;;;;;;;;;5049345;28;20420;-60
2021/01/06 06:17:10;;;;;;;7.50;6.03;;;;;;;;;;5042813;28;20188;-60
2021/01/06 06:19:46;;;;;;;7.80;5.97;;;;;;;;;;5058772;28;20415;-59
2021/01/06 06:22:29;;;;;;;5.93;5.33;;;;;;;;;;5058776;28;20580;-59
2021/01/06 06:24:58;;;;;;;6.70;5.27;;;;;;;;;;5049382;28;20472;-62
2021/01/06 06:27:27;;;;;;;7.27;6.17;;;;;;;;;;5031889;28;20438;-59
2021/01/06 06:29:57;;;;;;;6.17;5.43;;;;;;;;;;5060567;28;20204;-59
2021/01/06 06:32:32;;;;;;;6.47;5.70;;;;;;;;;;5060583;28;20466;-59
2021/01/06 06:35:24;;;;;;;7.40;6.37;;;;;;;;;;5031499;28;20226;-59
2021/01/06 06:37:58;;;;;;;7.73;6.00;;;;;;;;;;5029744;28;20451;-59
2021/01/06 06:40:25;;;;;;;8.27;5.87;;;;;;;;;;5053090;28;20468;-59
2021/01/06 06:42:59;;;;;;;7.90;6.60;;;;;;;;;;5065365;28;20193;-59
2021/01/06 06:45:46;;;;;;;8.37;5.80;;;;;;;;;;5061286;28;20925;-59
2021/01/06 06:48:30;;;;;;;7.53;6.00;;;;;;;;;;5069264;28;20451;-59
2021/01/06 06:51:01;;;;;;;8.47;6.70;;;;;;;;;;5051302;28;20477;-59
2021/01/06 06:53:37;;;;;;;7.93;6.60;;;;;;;;;;5049247;28;20427;-59
2021/01/06 06:56:16;;;;;;;7.67;6.57;;;;;;;;;;5031790;28;20180;-59
2021/01/06 06:58:53;;;;;;;6.77;6.07;;;;;;;;;;5053468;28;20211;-60
2021/01/06 07:01:26;;;;;;;7.27;6.23;;;;;;;;;;5059350;28;20932;-59
2021/01/06 07:04:00;;;;;;;6.97;6.27;;;;;;;;;;5061840;28;20560;-59
2021/01/06 07:06:26;;;;;;;7.33;6.17;;;;;;;;;;5059918;28;20460;-59
2021/01/06 07:08:54;;;;;;;8.10;6.57;;;;;;;;;;5073496;28;20583;-59
2021/01/06 07:11:23;;;;;;;8.10;6.87;;;;;;;;;;5059974;28;20847;-59
2021/01/06 07:14:15;;;;;;;7.23;5.87;;;;;;;;;;5035281;28;20419;-59
2021/01/06 07:16:53;;;;;;;7.33;6.10;;;;;;;;;;5031857;28;20845;-60
2021/01/06 07:19:22;;;;;;;7.10;5.87;;;;;;;;;;5046419;28;20420;-60
2021/01/06 07:21:51;;;;;;;7.63;6.10;;;;;;;;;;5045964;28;20420;-59
2021/01/06 07:24:19;;;;;;;6.97;5.80;;;;;;;;;;5052980;28;20423;-59
2021/01/06 07:26:53;;;;;;;7.03;5.37;;;;;;;;;;5053223;28;20508;-60
2021/01/06 07:29:20;;;;;;;6.87;6.10;;;;;;;;;;5059308;28;20548;-59
2021/01/06 07:31:58;;;;;;;7.13;5.90;;;;;;;;;;5066373;28;20462;-59
2021/01/06 07:34:30;;;;;;;7.43;6.07;;;;;;;;;;5052045;28;20430;-60
2021/01/06 07:36:59;;;;;;;6.97;5.97;;;;;;;;;;5071105;28;20414;-59
2021/01/06 07:39:27;;;;;;;7.43;6.73;;;;;;;;;;5071187;28;20230;-59
2021/01/06 07:41:53;;;;;;;7.67;6.03;;;;;;;;;;5062281;28;20426;-59
2021/01/06 07:44:27;;;;;;;8.30;6.83;;;;;;;;;;5062203;28;20455;-60
2021/01/06 07:46:53;;;;;;;7.57;6.20;;;;;;;;;;5065268;28;20176;-59
2021/01/06 07:49:38;;;;;;;7.53;5.90;;;;;;;;;;5058931;28;20438;-59
2021/01/06 07:52:28;;;;;;;7.80;7.00;;;;;;;;;;5059625;28;20208;-61
2021/01/06 07:54:58;;;;;;;6.93;6.13;;;;;;;;;;5054200;28;20427;-60
2021/01/06 07:57:36;;;;;;;7.53;6.77;;;;;;;;;;5052431;28;20176;-60
2021/01/06 08:00:06;;;;;;;8.17;7.37;;;;;;;;;;5069388;28;20419;-59
2021/01/06 08:02:39;;;;;;;8.90;6.73;;;;;;;;;;5048260;28;20707;-59
2021/01/06 08:05:11;;;;;;;9.00;6.87;;;;;;;;;;5059884;28;20431;-60
2021/01/06 08:07:37;;;;;;;7.77;6.73;;;;;;;;;;5038443;28;20427;-60
2021/01/06 08:10:13;;;;;;;9.70;6.93;;;;;;;;;;5038073;28;20784;-60
2021/01/06 08:12:43;;;;;;;10.13;8.23;;;;;;;;;;5052581;28;20965;-59
2021/01/06 08:15:18;;;;;;;8.70;7.57;;;;;;;;;;5057890;28;20424;-59
2021/01/06 08:17:51;;;;;;;10.13;7.33;;;;;;;;;;5054239;28;20184;-59
2021/01/06 08:20:26;;;;;;;8.77;7.87;;;;;;;;;;5065684;28;20759;-59
2021/01/06 08:23:01;;;;;;;8.73;7.30;;;;;;;;;;5052220;28;20185;-60
2021/01/06 08:25:30;;;;;;;9.57;8.13;;;;;;;;;;5038554;28;20192;-61
2021/01/06 08:27:56;;;;;;;10.03;7.77;;;;;;;;;;5061101;28;20208;-60
2021/01/06 08:30:24;;;;;;;9.60;8.23;;;;;;;;;;5068998;28;20450;-60
2021/01/06 08:33:01;;;;;;;10.23;7.47;;;;;;;;;;5057862;28;20684;-60
2021/01/06 08:35:30;;;;;;;9.03;7.77;;;;;;;;;;5045686;28;20426;-60
2021/01/06 08:37:56;;;;;;;8.77;7.47;;;;;;;;;;5060252;28;20446;-59
2021/01/06 08:40:28;;;;;;;12.13;8.97;;;;;;;;;;5061111;28;20922;-61
2021/01/06 08:42:54;;;;;;;9.03;8.13;;;;;;;;;;5041111;28;20192;-62
2021/01/06 08:45:26;;;;;;;8.50;7.47;;;;;;;;;;5042065;28;20448;-60
2021/01/06 08:47:52;;;;;;;9.93;8.07;;;;;;;;;;5059830;28;21176;-60
2021/01/06 08:50:28;;;;;;;9.70;7.83;;;;;;;;;;5039912;28;20423;-60
2021/01/06 08:53:14;;;;;;;10.13;8.23;;;;;;;;;;5066765;28;20269;-59
2021/01/06 08:55:41;;;;;;;9.97;8.53;;;;;;;;;;5070407;28;20599;-61
2021/01/06 08:58:12;;;;;;;9.23;7.70;;;;;;;;;;5055662;28;20183;-60
2021/01/06 09:00:45;;;;;;;11.53;8.57;;;;;;;;;;5052902;28;20478;-62
2021/01/06 09:03:11;;;;;;;8.07;7.10;;;;;;;;;;5058026;28;20463;-60
2021/01/06 09:05:59;;;;;;;11.03;8.47;;;;;;;;;;5061886;28;21181;-59
2021/01/06 09:08:27;;;;;;;10.37;8.30;;;;;;;;;;5055342;28;20611;-59
2021/01/06 09:11:12;;;;;;;11.20;9.17;;;;;;;;;;5062603;28;20266;-60
2021/01/06 09:13:40;;;;;;;11.00;8.20;;;;;;;;;;5053691;28;20450;-60
2021/01/06 09:16:16;;;;;;;13.33;8.30;;;;;;;;;;5034952;28;20958;-59
2021/01/06 09:18:53;;;;;;;10.17;8.70;;;;;;;;;;5040690;28;20431;-59
2021/01/06 09:21:23;;;;;;;10.23;8.43;;;;;;;;;;5061694;28;20518;-59
2021/01/06 09:23:53;;;;;;;12.00;8.80;;;;;;;;;;5055326;28;20489;-60
2021/01/06 09:26:21;;;;;;;10.27;8.43;;;;;;;;;;5055969;28;20415;-60
2021/01/06 09:28:50;;;;;;;10.13;9.03;;;;;;;;;;5049900;28;20463;-59
2021/01/06 09:31:16;;;;;;;10.20;8.97;;;;;;;;;;5049480;28;21007;-59
2021/01/06 09:33:42;;;;;;;10.07;8.00;;;;;;;;;;5055298;28;20659;-59
2021/01/06 09:36:09;;;;;;;10.23;8.27;;;;;;;;;;5066414;28;20463;-60
2021/01/06 09:38:37;;;;;;;10.00;8.30;;;;;;;;;;5050505;28;20776;-59
2021/01/06 09:41:07;;;;;;;9.47;7.83;;;;;;;;;;5053287;28;20476;-62
2021/01/06 09:43:41;;;;;;;10.70;9.00;;;;;;;;;;5055877;28;20762;-59
2021/01/06 09:46:27;;;;;;;9.67;7.73;;;;;;;;;;5056102;28;20468;-59
2021/01/06 09:48:58;;;;;;;10.93;9.27;;;;;;;;;;5055039;28;20422;-59
2021/01/06 09:51:25;;;;;;;10.33;8.43;;;;;;;;;;5054825;28;20785;-59
2021/01/06 09:53:53;;;;;;;11.23;8.43;;;;;;;;;;5058445;28;20418;-60
2021/01/06 09:56:20;;;;;;;10.57;8.53;;;;;;;;;;5050995;28;20503;-59
2021/01/06 09:58:47;;;;;;;10.50;8.73;;;;;;;;;;5057859;28;20424;-60
2021/01/06 10:01:20;;;;;;;11.70;8.50;;;;;;;;;;5055895;28;20921;-61
2021/01/06 10:03:49;;;;;;;10.07;8.67;;;;;;;;;;5058129;28;20504;-59
2021/01/06 10:06:21;;;;;;;10.93;8.97;;;;;;;;;;5053280;28;20431;-59
2021/01/06 10:08:58;;;;;;;10.43;8.33;;;;;;;;;;5045905;28;20427;-60
2021/01/06 10:11:45;;;;;;;8.93;7.60;;;;;;;;;;5039882;28;20434;-61
2021/01/06 10:14:29;;;;;;;11.63;8.97;;;;;;;;;;5053075;28;20687;-59
2021/01/06 10:17:03;;;;;;;9.43;7.50;;;;;;;;;;5052584;28;20470;-60
2021/01/06 10:19:40;;;;;;;11.20;7.97;;;;;;;;;;5051102;28;20419;-60
2021/01/06 10:22:21;;;;;;;8.73;7.67;;;;;;;;;;5034290;28;20427;-61
2021/01/06 10:25:09;;;;;;;10.23;7.93;;;;;;;;;;5051502;28;20927;-59
2021/01/06 10:27:40;;;;;;;9.03;7.40;;;;;;;;;;5050242;28;20554;-59
2021/01/06 10:30:09;;;;;;;11.00;8.43;;;;;;;;;;5055562;28;20212;-59
2021/01/06 10:32:44;;;;;;;11.80;8.03;;;;;;;;;;5034019;28;20529;-60
2021/01/06 10:35:26;;;;;;;8.77;7.47;;;;;;;;;;5038542;28;20446;-61
2021/01/06 10:37:52;;;;;;;12.20;7.73;;;;;;;;;;5061639;28;20665;-61
2021/01/06 10:40:25;;;;;;;10.17;7.83;;;;;;;;;;5038064;28;20969;-59
2021/01/06 10:42:52;;;;;;;9.70;7.43;;;;;;;;;;5039062;28;20315;-59
2021/01/06 10:45:29;;;;;;;9.93;7.90;;;;;;;;;;5075481;28;20423;-60
2021/01/06 10:47:56;;;;;;;9.30;7.93;;;;;;;;;;5043370;28;20462;-59
2021/01/06 10:50:26;;;;;;;10.10;8.13;;;;;;;;;;5058084;28;20463;-59
2021/01/06 10:52:55;;;;;;;9.07;7.43;;;;;;;;;;5052039;28;20206;-59
2021/01/06 10:55:42;;;;;;;9.77;8.33;;;;;;;;;;5059247;28;20420;-60
2021/01/06 10:58:16;;;;;;;9.30;7.67;;;;;;;;;;5065520;28;20809;-60
2021/01/06 11:01:01;;;;;;;11.00;7.80;;;;;;;;;;5042950;28;20414;-59
2021/01/06 11:03:47;;;;;;;9.33;7.33;;;;;;;;;;5053112;28;20300;-60
2021/01/06 11:06:24;;;;;;;10.70;8.07;;;;;;;;;;5053888;28;20247;-60
2021/01/06 11:09:08;;;;;;;10.43;8.27;;;;;;;;;;5065585;28;20180;-60
2021/01/06 11:11:34;;;;;;;10.30;7.23;;;;;;;;;;5039091;28;20466;-60
2021/01/06 11:14:19;;;;;;;9.33;8.10;;;;;;;;;;5037411;28;20169;-60
2021/01/06 11:16:49;;;;;;;10.63;8.93;;;;;;;;;;5059699;28;20181;-59
2021/01/06 11:19:34;;;;;;;9.03;7.53;;;;;;;;;;5067188;28;20427;-60
2021/01/06 11:22:04;;;;;;;10.07;8.03;;;;;;;;;;5051445;28;20419;-60
2021/01/06 11:24:33;;;;;;;10.57;7.97;;;;;;;;;;5036667;28;20431;-60
2021/01/06 11:26:59;;;;;;;8.63;7.47;;;;;;;;;;5054738;28;20639;-59
2021/01/06 11:29:29;;;;;;;10.50;7.90;;;;;;;;;;5036427;28;20463;-59
2021/01/06 11:32:01;;;;;;;8.37;6.73;;;;;;;;;;5059928;28;20462;-59
2021/01/06 11:34:29;;;;;;;7.97;6.97;;;;;;;;;;5058101;28;20882;-59
2021/01/06 11:36:56;;;;;;;9.87;8.23;;;;;;;;;;5059950;28;20435;-59
2021/01/06 11:39:28;;;;;;;10.23;7.80;;;;;;;;;;5057072;28;20572;-59
2021/01/06 11:41:56;;;;;;;10.17;8.10;;;;;;;;;;5054949;28;20193;-59
2021/01/06 11:44:31;;;;;;;10.03;7.97;;;;;;;;;;5066547;28;20479;-59
2021/01/06 11:47:16;;;;;;;11.13;7.97;;;;;;;;;;5063776;28;20496;-59
2021/01/06 11:49:42;;;;;;;13.63;7.87;;;;;;;;;;5059902;28;20427;-59
2021/01/06 11:52:27;;;;;;;9.23;7.83;;;;;;;;;;5045318;28;20554;-60
2021/01/06 11:55:09;;;;;;;11.40;8.13;;;;;;;;;;5054072;28;20431;-59
2021/01/06 11:57:44;;;;;;;9.50;7.73;;;;;;;;;;5059966;28;21058;-59
2021/01/06 12:00:16;;;;;;;14.17;7.73;;;;;;;;;;5064622;28;20441;-59
2021/01/06 12:02:51;;;;;;;8.97;7.67;;;;;;;;;;5072702;28;20561;-62
2021/01/06 12:05:31;;;;;;;8.13;6.73;;;;;;;;;;5060416;28;20520;-62
2021/01/06 12:08:04;;;;;;;10.63;7.80;;;;;;;;;;5063567;28;20429;-60
2021/01/06 12:10:42;;;;;;;9.37;7.57;;;;;;;;;;5060585;28;20937;-59
2021/01/06 12:13:27;;;;;;;12.07;8.90;;;;;;;;;;5052405;28;20564;-60
2021/01/06 12:15:53;;;;;;;10.17;8.40;;;;;;;;;;5052698;28;20395;-60
2021/01/06 12:18:25;;;;;;;9.07;7.10;;;;;;;;;;5037187;28;20757;-60
2021/01/06 12:20:52;;;;;;;9.90;7.13;;;;;;;;;;5063432;28;20812;-59
2021/01/06 12:23:20;;;;;;;9.87;7.80;;;;;;;;;;5065417;28;20416;-60
2021/01/06 12:25:47;;;;;;;9.27;8.17;;;;;;;;;;5059558;28;20414;-59
2021/01/06 12:28:29;;;;;;;11.57;7.17;;;;;;;;;;5061567;28;20531;-60
2021/01/06 12:31:07;;;;;;;9.60;7.57;;;;;;;;;;5060169;28;20458;-60
2021/01/06 12:33:56;;;;;;;9.87;7.63;;;;;;;;;;5062266;28;20868;-61
2021/01/06 12:36:33;;;;;;;8.47;7.57;;;;;;;;;;5053874;28;20431;-60
2021/01/06 12:39:16;;;;;;;9.63;7.50;;;;;;;;;;5057468;28;20173;-61
2021/01/06 12:41:49;;;;;;;9.80;7.13;;;;;;;;;;5061544;28;21165;-59
2021/01/06 12:44:20;;;;;;;9.30;7.03;;;;;;;;;;5056585;28;20553;-60
2021/01/06 12:47:01;;;;;;;10.00;7.23;;;;;;;;;;5066102;28;20177;-60
2021/01/06 12:49:34;;;;;;;8.80;7.17;;;;;;;;;;5048992;28;20427;-59
2021/01/06 12:52:16;;;;;;;8.67;6.90;;;;;;;;;;5050153;28;20502;-60
2021/01/06 12:54:44;;;;;;;8.07;7.27;;;;;;;;;;5066196;28;20423;-61
2021/01/06 12:57:15;;;;;;;10.30;7.83;;;;;;;;;;5058126;28;20817;-62
2021/01/06 12:59:46;;;;;;;9.20;7.47;;;;;;;;;;5057325;28;20208;-60
2021/01/06 13:02:18;;;;;;;10.20;7.20;;;;;;;;;;5052855;28;21268;-60
2021/01/06 13:04:46;;;;;;;9.43;7.40;;;;;;;;;;5059932;28;20474;-60
2021/01/06 13:07:12;;;;;;;8.67;7.60;;;;;;;;;;5038606;28;20420;-59
2021/01/06 13:09:42;;;;;;;10.57;8.40;;;;;;;;;;5063784;28;21004;-61
2021/01/06 13:12:10;;;;;;;9.67;8.23;;;;;;;;;;5061810;28;20197;-59
2021/01/06 13:14:36;;;;;;;11.27;7.93;;;;;;;;;;5035135;28;20184;-59
2021/01/06 13:17:15;;;;;;;9.17;7.37;;;;;;;;;;5053212;28;20436;-61
2021/01/06 13:20:00;;;;;;;9.10;7.33;;;;;;;;;;5059235;28;20430;-59
2021/01/06 13:22:32;;;;;;;8.13;6.83;;;;;;;;;;5054979;28;20431;-59
2021/01/06 13:25:05;;;;;;;8.37;6.90;;;;;;;;;;5054629;28;20447;-59
2021/01/06 13:27:44;;;;;;;8.90;7.43;;;;;;;;;;5059388;28;20423;-60
2021/01/06 13:30:29;;;;;;;8.50;7.00;;;;;;;;;;5040130;28;20465;-61
2021/01/06 13:33:05;;;;;;;9.67;7.00;;;;;;;;;;5050279;28;20459;-62
2021/01/06 13:35:35;;;;;;;9.40;7.70;;;;;;;;;;5041247;28;20222;-60
2021/01/06 13:38:04;;;;;;;8.10;6.30;;;;;;;;;;5025832;28;20442;-60
2021/01/06 13:40:31;;;;;;;9.00;7.53;;;;;;;;;;5060589;28;20438;-60
2021/01/06 13:43:00;;;;;;;9.10;7.23;;;;;;;;;;5058936;28;20414;-59
2021/01/06 13:45:38;;;;;;;7.63;6.67;;;;;;;;;;5056488;28;20431;-59
2021/01/06 13:48:27;;;;;;;9.17;6.40;;;;;;;;;;5067423;28;20441;-59
2021/01/06 13:51:11;;;;;;;7.90;6.37;;;;;;;;;;5007032;28;20466;-59
2021/01/06 13:53:56;;;;;;;7.70;6.00;;;;;;;;;;5065703;28;20480;-59
2021/01/06 13:56:29;;;;;;;6.90;6.17;;;;;;;;;;5056876;28;20925;-59
2021/01/06 13:58:55;;;;;;;9.77;6.27;;;;;;;;;;5033257;28;20429;-60
2021/01/06 14:01:34;;;;;;;9.70;6.77;;;;;;;;;;5057160;28;20432;-58
2021/01/06 14:04:06;;;;;;;8.07;6.57;;;;;;;;;;5053941;28;20840;-58
2021/01/06 14:06:33;;;;;;;15.67;7.57;;;;;;;;;;5044941;28;20476;-59
2021/01/06 14:09:16;;;;;;;8.70;6.97;;;;;;;;;;5054368;28;20427;-61
2021/01/06 14:12:01;;;;;;;9.63;7.00;;;;;;;;;;5057502;28;20448;-59
2021/01/06 14:14:46;;;;;;;9.73;6.40;;;;;;;;;;5051755;28;20420;-59
2021/01/06 14:17:31;;;;;;;9.13;7.43;;;;;;;;;;5061623;28;20458;-59
2021/01/06 14:20:01;;;;;;;8.70;7.20;;;;;;;;;;5066848;28;20905;-59
2021/01/06 14:22:40;;;;;;;9.17;6.63;;;;;;;;;;5060207;28;20431;-59
2021/01/06 14:25:24;;;;;;;7.53;6.33;;;;;;;;;;5058224;28;20430;-58
2021/01/06 14:27:53;;;;;;;11.23;5.60;;;;;;;;;;5042903;28;20412;-59
2021/01/06 14:30:41;;;;;;;9.20;7.13;;;;;;;;;;5060090;28;20431;-59
2021/01/06 14:33:18;;;;;;;10.17;5.63;;;;;;;;;;5060009;28;20246;-58
2021/01/06 14:35:46;;;;;;;7.70;5.80;;;;;;;;;;5068850;28;20918;-59
2021/01/06 14:38:22;;;;;;;9.63;6.53;;;;;;;;;;5056749;28;20967;-58
2021/01/06 14:41:04;;;;;;;7.93;6.00;;;;;;;;;;5053574;28;20416;-58
2021/01/06 14:43:42;;;;;;;7.13;6.27;;;;;;;;;;5056395;28;20414;-58
2021/01/06 14:46:08;;;;;;;7.43;5.97;;;;;;;;;;5061751;28;20418;-58
2021/01/06 14:48:36;;;;;;;6.93;5.93;;;;;;;;;;5060023;28;20481;-59
2021/01/06 14:51:19;;;;;;;8.10;6.93;;;;;;;;;;5036524;28;20211;-58
2021/01/06 14:53:48;;;;;;;5.73;5.13;;;;;;;;;;5062230;28;20451;-58
2021/01/06 14:56:17;;;;;;;8.53;5.60;;;;;;;;;;5032033;28;20442;-59
2021/01/06 14:59:00;;;;;;;7.07;6.37;;;;;;;;;;5050304;28;20409;-58
2021/01/06 15:01:33;;;;;;;7.33;5.83;;;;;;;;;;5068119;28;20534;-58
2021/01/06 15:04:09;;;;;;;7.60;5.33;;;;;;;;;;5055011;28;20620;-58
2021/01/06 15:06:54;;;;;;;6.97;5.10;;;;;;;;;;5051327;28;20443;-59
2021/01/06 15:09:52;;;;;;;6.40;4.80;;;;;;;;;;5061504;28;20418;-60